Time;durP1;ratioP1;P1;durP2;ratioP2;P2;SDS_P1;SDS_P2;PMS_P1;PMS_P2;Temp;Humidity;BMP_temperature;BMP_pressure;BME280_temperature;BME280_humidity;BME280_pressure;Samples;Min_cycle;Max_cycle;Signal;HPM_P1;HPM_P2
2022/04/10 00:01:03;;;;;;;39.23;36.93;;;;;;;6.25;100.00;101969.20;2018370;71;32873;-78
2022/04/10 00:06:47;;;;;;;43.07;40.27;;;;;;;6.21;100.00;101977.62;1995578;71;32780;-75
2022/04/10 00:12:33;;;;;;;50.50;47.60;;;;;;;5.98;100.00;101971.10;2004347;71;33325;-72
2022/04/10 00:18:20;;;;;;;57.03;53.63;;;;;;;5.47;100.00;101981.28;2001085;71;32854;-73
2022/04/10 00:24:07;;;;;;;57.97;54.77;;;;;;;5.63;100.00;101981.78;1992128;71;33272;-76
2022/04/10 00:29:52;;;;;;;57.43;54.20;;;;;;;5.82;100.00;101981.59;2002466;71;32916;-73
2022/04/10 00:35:36;;;;;;;55.63;52.23;;;;;;;5.95;100.00;101971.84;2007681;71;32808;-73
2022/04/10 00:41:20;;;;;;;56.80;53.60;;;;;;;5.90;100.00;101988.79;2005806;71;32831;-78
2022/04/10 00:47:24;;;;;;;55.77;52.47;;;;;;;5.86;100.00;101972.36;2000595;71;32848;-73
2022/04/10 00:53:09;;;;;;;57.27;53.87;;;;;;;5.78;100.00;101980.89;1997396;70;33356;-74
2022/04/10 00:58:54;;;;;;;59.20;55.77;;;;;;;5.46;100.00;101983.72;2013168;71;33282;-79
2022/04/10 01:04:39;;;;;;;61.17;57.37;;;;;;;5.35;100.00;101988.55;2013401;71;32745;-72
2022/04/10 01:10:24;;;;;;;62.40;58.40;;;;;;;4.80;100.00;101986.56;1995575;70;32865;-76
2022/04/10 01:16:08;;;;;;;64.47;60.67;;;;;;;4.67;100.00;101988.00;2004034;71;33432;-78
2022/04/10 01:21:56;;;;;;;64.57;60.80;;;;;;;4.20;100.00;101991.98;1995128;71;32808;-79
2022/04/10 01:27:42;;;;;;;65.17;61.23;;;;;;;4.55;100.00;101996.11;2011818;71;32990;-72
2022/04/10 01:33:28;;;;;;;64.33;60.33;;;;;;;4.66;100.00;101987.72;2014660;71;33374;-78
2022/04/10 01:39:15;;;;;;;67.43;63.17;;;;;;;4.55;100.00;101977.69;2009837;71;33271;-79
2022/04/10 01:44:59;;;;;;;64.93;60.93;;;;;;;4.30;100.00;101973.13;1995765;71;33325;-73
2022/04/10 01:50:48;;;;;;;63.43;59.43;;;;;;;4.06;100.00;101980.19;2000819;71;33196;-75
2022/04/10 01:56:30;;;;;;;65.53;61.13;;;;;;;4.12;100.00;101964.19;2014913;71;32833;-79
2022/04/10 02:02:14;;;;;;;65.00;61.10;;;;;;;4.19;100.00;101966.41;2007843;70;33280;-79
2022/04/10 02:07:58;;;;;;;62.87;58.63;;;;;;;4.31;100.00;101960.55;2009283;71;32947;-74
2022/04/10 02:13:43;;;;;;;65.20;60.93;;;;;;;4.07;100.00;101955.21;2004320;71;33237;-73
2022/04/10 02:19:28;;;;;;;63.93;59.60;;;;;;;3.73;100.00;101959.61;2003727;71;32875;-79
2022/04/10 02:25:13;;;;;;;64.07;60.07;;;;;;;3.49;100.00;101957.52;2002982;70;33196;-73
2022/04/10 02:30:57;;;;;;;63.73;59.43;;;;;;;3.65;100.00;101961.20;2012972;71;33017;-74
2022/04/10 02:36:41;;;;;;;65.70;61.57;;;;;;;3.89;100.00;101959.19;2014669;71;32807;-79
2022/04/10 02:42:28;;;;;;;66.33;62.10;;;;;;;3.75;100.00;101964.91;2009608;71;32795;-75
2022/04/10 02:48:13;;;;;;;65.53;61.33;;;;;;;4.03;100.00;101964.10;1995120;71;32875;-75
2022/04/10 02:53:58;;;;;;;64.50;60.20;;;;;;;3.98;100.00;101957.88;2013802;71;32761;-73
2022/04/10 02:59:42;;;;;;;65.07;60.57;;;;;;;3.70;100.00;101971.56;2016641;70;32949;-73
2022/04/10 03:05:26;;;;;;;63.70;59.50;;;;;;;3.77;100.00;101966.89;2002616;71;32748;-73
2022/04/10 03:11:10;;;;;;;65.67;61.37;;;;;;;3.61;100.00;101972.30;1998784;71;32882;-74
2022/04/10 03:16:56;;;;;;;64.30;59.90;;;;;;;3.49;100.00;101977.60;2015236;71;33261;-74
2022/04/10 03:22:40;;;;;;;63.07;58.77;;;;;;;3.64;100.00;101975.99;2016763;71;32800;-73
2022/04/10 03:28:26;;;;;;;63.63;59.57;;;;;;;3.48;100.00;101973.16;1998920;71;32935;-77
2022/04/10 03:34:10;;;;;;;62.97;58.87;;;;;;;3.65;100.00;101981.81;2000507;70;32896;-78
2022/04/10 03:39:54;;;;;;;65.20;60.73;;;;;;;3.43;100.00;101985.30;2002744;70;32772;-75
2022/04/10 03:45:41;;;;;;;63.00;59.00;;;;;;;3.43;100.00;101983.92;2013020;71;33342;-73
2022/04/10 03:51:26;;;;;;;61.23;57.33;;;;;;;2.79;100.00;101988.23;2006974;71;32786;-72
2022/04/10 03:57:10;;;;;;;59.90;55.90;;;;;;;2.46;100.00;101989.48;1959451;72;32814;-78
2022/04/10 04:02:54;;;;;;;61.73;57.70;;;;;;;2.46;100.00;101988.12;1973474;72;32895;-74
2022/04/10 04:08:40;;;;;;;62.47;58.47;;;;;;;2.62;100.00;101982.27;1995594;71;32851;-74
2022/04/10 04:14:24;;;;;;;63.13;58.93;;;;;;;3.03;100.00;101984.94;2000777;71;32864;-72
2022/04/10 04:20:10;;;;;;;60.50;56.30;;;;;;;3.19;100.00;101990.88;2009877;71;33282;-74
2022/04/10 04:25:54;;;;;;;60.73;56.40;;;;;;;3.23;100.00;101979.47;2015199;71;32877;-74
2022/04/10 04:31:39;;;;;;;61.93;57.70;;;;;;;3.20;100.00;101985.72;1999246;71;32878;-73
2022/04/10 04:37:23;;;;;;;64.00;59.73;;;;;;;3.23;100.00;101993.20;1991233;71;32742;-77
2022/04/10 04:43:08;;;;;;;64.73;60.10;;;;;;;3.26;100.00;101999.12;1995521;71;33250;-73
2022/04/10 04:48:52;;;;;;;63.47;58.93;;;;;;;3.43;100.00;102004.52;2006552;71;32802;-74
2022/04/10 04:54:37;;;;;;;61.07;56.87;;;;;;;3.18;100.00;101996.57;2010446;71;33243;-75
2022/04/10 05:00:22;;;;;;;60.73;56.23;;;;;;;2.91;100.00;102019.54;2016860;71;32877;-74
2022/04/10 05:06:06;;;;;;;61.63;57.13;;;;;;;3.19;100.00;102013.37;2002664;71;32850;-74
2022/04/10 05:11:54;;;;;;;65.47;61.00;;;;;;;2.98;100.00;102012.16;2005597;71;32854;-78
2022/04/10 05:17:38;;;;;;;66.57;61.93;;;;;;;2.93;100.00;102013.30;2006405;71;32749;-78
2022/04/10 05:23:23;;;;;;;60.13;55.73;;;;;;;3.01;100.00;102014.48;2013250;71;32820;-72
2022/04/10 05:29:09;;;;;;;60.53;56.17;;;;;;;2.95;100.00;102012.58;2013219;71;33343;-79
2022/04/10 05:34:54;;;;;;;61.50;57.13;;;;;;;2.94;100.00;102021.86;2009911;71;32813;-75
2022/04/10 05:40:38;;;;;;;60.27;55.87;;;;;;;3.10;100.00;102020.95;2004948;71;32871;-75
2022/04/10 05:46:22;;;;;;;60.10;55.80;;;;;;;2.99;100.00;102025.69;2013585;71;32791;-72
2022/04/10 05:52:08;;;;;;;60.43;55.57;;;;;;;2.93;100.00;102027.02;1991809;71;33325;-73
2022/04/10 05:57:52;;;;;;;62.37;57.57;;;;;;;3.03;100.00;102034.34;1971956;72;32937;-73
2022/04/10 06:03:36;;;;;;;62.87;58.00;;;;;;;3.21;100.00;102040.07;2006439;71;32834;-74
2022/04/10 06:09:20;;;;;;;59.37;54.93;;;;;;;3.23;100.00;102028.89;2016732;71;32810;-72
2022/04/10 06:15:06;;;;;;;61.20;56.70;;;;;;;3.15;100.00;102027.20;2011497;70;33356;-78
2022/04/10 06:20:50;;;;;;;62.13;57.53;;;;;;;3.44;100.00;102039.18;2017195;71;32923;-74
2022/04/10 06:26:34;;;;;;;63.53;58.37;;;;;;;3.65;100.00;102034.86;2016998;71;32856;-72
2022/04/10 06:32:18;;;;;;;65.83;60.77;;;;;;;3.77;100.00;102038.34;1997394;71;32861;-73
2022/04/10 06:38:04;;;;;;;65.23;60.43;;;;;;;4.04;100.00;102032.63;2013359;71;33257;-76
2022/04/10 06:43:48;;;;;;;66.20;61.00;;;;;;;4.00;100.00;102027.77;2006646;71;33337;-74
2022/04/10 06:49:32;;;;;;;63.53;58.60;;;;;;;4.10;100.00;102027.66;2015155;71;32852;-73
2022/04/10 06:55:18;;;;;;;66.43;61.53;;;;;;;4.31;100.00;102025.72;2016606;71;33326;-77
2022/04/10 07:01:03;;;;;;;64.17;59.20;;;;;;;4.26;100.00;102033.76;2011504;71;32840;-72
2022/04/10 07:06:47;;;;;;;64.43;59.33;;;;;;;4.57;100.00;102029.77;2015086;71;32818;-71
2022/04/10 07:12:32;;;;;;;63.47;58.57;;;;;;;4.82;100.00;102035.38;2016965;71;33358;-78
2022/04/10 07:18:17;;;;;;;67.50;62.30;;;;;;;5.02;100.00;102029.23;2015078;71;32859;-73
2022/04/10 07:24:01;;;;;;;64.13;59.53;;;;;;;5.37;100.00;102036.03;2006011;71;32959;-75
2022/04/10 07:29:45;;;;;;;65.37;60.73;;;;;;;5.54;100.00;102029.97;2016634;71;32809;-70
2022/04/10 07:35:30;;;;;;;64.03;59.23;;;;;;;5.85;100.00;102033.55;2016837;71;32818;-72
2022/04/10 07:41:14;;;;;;;63.37;58.77;;;;;;;6.20;100.00;102042.70;2016950;71;32898;-77
2022/04/10 07:53:01;;;;;;;65.63;61.03;;;;;;;6.82;100.00;102039.66;1995198;71;32837;-71
2022/04/10 07:58:43;;;;;;;65.60;60.87;;;;;;;7.20;100.00;102042.66;2017306;71;32876;-73
2022/04/10 08:04:28;;;;;;;62.53;58.37;;;;;;;7.47;100.00;102043.98;2008118;71;32817;-73
2022/04/10 08:10:13;;;;;;;55.17;51.87;;;;;;;8.04;100.00;102036.88;2000820;71;32943;-75
2022/04/10 08:15:57;;;;;;;55.33;51.80;;;;;;;8.37;100.00;102041.84;2004819;71;32748;-73
2022/04/10 08:21:41;;;;;;;51.90;48.70;;;;;;;8.76;100.00;102033.30;2010392;71;32773;-76
2022/04/10 08:27:26;;;;;;;45.00;42.30;;;;;;;8.92;100.00;102025.60;2014734;70;32903;-70
2022/04/10 08:33:10;;;;;;;43.40;41.00;;;;;;;9.06;100.00;102017.31;2016831;71;32852;-70
2022/04/10 08:38:56;;;;;;;41.33;38.67;;;;;;;9.49;100.00;102005.66;1997252;71;32795;-76
2022/04/10 08:44:41;;;;;;;42.40;39.80;;;;;;;9.72;100.00;102005.19;2009578;71;32874;-74
2022/04/10 08:50:27;;;;;;;38.40;36.10;;;;;;;9.85;100.00;102003.47;2011647;70;32820;-76
2022/04/10 08:56:13;;;;;;;33.93;32.03;;;;;;;10.13;100.00;102003.94;2008332;71;33272;-75
2022/04/10 09:01:57;;;;;;;31.80;29.77;;;;;;;10.30;100.00;102008.95;2015141;71;32809;-72
2022/04/10 09:07:33;;;;;;;31.43;29.33;;;;;;;10.48;100.00;101990.03;1909816;72;115021;-76
2022/04/10 09:10:04;;;;;;;28.50;26.50;;;;;;;10.64;100.00;101996.66;1879854;76;26202;-74
2022/04/10 09:12:37;;;;;;;26.00;24.50;;;;;;;10.67;100.00;101998.91;1883982;76;26222;-74
2022/04/10 09:15:09;;;;;;;25.83;24.20;;;;;;;10.64;100.00;101998.05;1920664;75;26203;-75
2022/04/10 09:17:41;;;;;;;26.03;24.53;;;;;;;10.76;100.00;102002.92;1883774;76;26233;-75
2022/04/10 09:20:12;;;;;;;21.87;20.60;;;;;;;11.03;100.00;101992.41;1920824;74;26292;-74
2022/04/10 09:22:42;;;;;;;20.20;18.80;;;;;;;11.01;100.00;102002.39;1887528;76;26718;-76
2022/04/10 09:25:14;;;;;;;21.87;20.37;;;;;;;11.11;100.00;101996.11;1915137;75;26255;-74
2022/04/10 09:27:45;;;;;;;17.93;16.93;;;;;;;11.29;100.00;101992.43;1915086;75;26190;-73
2022/04/10 09:30:18;;;;;;;16.03;15.13;;;;;;;11.40;100.00;101994.75;1915217;75;26689;-74
2022/04/10 09:32:51;;;;;;;17.00;15.80;;;;;;;11.38;100.00;101988.05;1915189;75;26289;-73
2022/04/10 09:35:22;;;;;;;15.13;14.13;;;;;;;11.68;100.00;101983.90;1914925;75;26301;-73
2022/04/10 09:37:59;;;;;;;15.30;14.40;;;;;;;11.58;100.00;101979.63;1914884;75;26308;-75
2022/04/10 09:40:31;;;;;;;14.07;13.27;;;;;;;11.61;100.00;101983.26;1915202;75;26200;-72
2022/04/10 09:43:05;;;;;;;12.73;11.93;;;;;;;11.33;100.00;101985.79;1915191;75;26641;-72
2022/04/10 09:45:38;;;;;;;12.10;11.10;;;;;;;11.66;100.00;101979.13;1914982;75;26192;-74
2022/04/10 09:48:27;;;;;;;11.70;11.00;;;;;;;11.85;100.00;101973.50;1915152;75;26200;-74
2022/04/10 09:50:59;;;;;;;11.23;10.43;;;;;;;12.08;100.00;101982.00;1915105;75;26705;-75
2022/04/10 09:53:31;;;;;;;10.97;10.47;;;;;;;12.06;100.00;101980.89;1915109;75;26207;-75
2022/04/10 09:56:03;;;;;;;11.73;10.93;;;;;;;12.03;100.00;101971.66;1914582;75;26365;-73
2022/04/10 09:58:35;;;;;;;12.47;11.77;;;;;;;12.10;100.00;101978.41;1913450;75;26199;-72
2022/04/10 10:01:10;;;;;;;12.60;11.80;;;;;;;11.76;100.00;101974.54;1913750;75;26195;-75
2022/04/10 10:03:39;;;;;;;10.73;10.07;;;;;;;11.98;100.00;101973.01;1912802;74;26187;-73
2022/04/10 10:06:09;;;;;;;10.83;10.23;;;;;;;12.19;100.00;101966.47;1913540;74;26312;-73
2022/04/10 10:08:40;;;;;;;11.50;10.90;;;;;;;11.97;100.00;101960.77;1913500;75;26203;-74
2022/04/10 10:11:11;;;;;;;11.00;10.50;;;;;;;12.16;100.00;101958.66;1913631;75;26284;-73
2022/04/10 10:13:43;;;;;;;11.17;10.57;;;;;;;12.37;100.00;101956.83;1913518;75;26231;-75
2022/04/10 10:16:13;;;;;;;11.00;10.40;;;;;;;12.47;100.00;101953.27;1913539;75;26204;-74
2022/04/10 10:18:46;;;;;;;11.20;10.60;;;;;;;12.43;100.00;101957.70;1913027;75;26340;-72
2022/04/10 10:21:18;;;;;;;10.73;10.17;;;;;;;12.43;100.00;101970.25;1912926;75;26228;-75
2022/04/10 10:27:27;;;;;;;10.40;9.90;;;;;;;12.57;100.00;101959.75;2004137;71;33425;-69
2022/04/10 10:33:27;;;;;;;11.67;10.97;;;;;;;12.82;100.00;101961.80;2015431;71;33377;-72
2022/04/10 10:39:12;;;;;;;10.97;10.23;;;;;;;12.65;100.00;101963.95;2002543;71;32749;-69
2022/04/10 10:45:00;;;;;;;12.00;11.20;;;;;;;12.75;100.00;101959.24;1991606;71;32816;-77
2022/04/10 10:50:46;;;;;;;11.43;10.83;;;;;;;12.94;100.00;101952.63;2002857;71;32760;-74
2022/04/10 10:56:33;;;;;;;10.83;10.30;;;;;;;12.88;100.00;101938.95;1995544;71;32754;-74
2022/04/10 11:02:39;;;;;;;10.97;10.47;;;;;;;12.91;100.00;101940.63;2011390;71;32888;-76
2022/04/10 11:08:27;;;;;;;11.20;10.70;;;;;;;12.98;100.00;101930.05;2015429;71;32818;-74
2022/04/10 11:14:36;;;;;;;11.47;10.77;;;;;;;13.00;100.00;101919.47;1959494;72;32909;-68
2022/04/10 11:20:25;;;;;;;11.70;11.10;;;;;;;12.97;100.00;101922.78;2004533;70;33271;-72
2022/04/10 11:26:15;;;;;;;12.40;11.70;;;;;;;12.83;100.00;101913.28;1994216;71;32909;-75
2022/04/10 11:32:19;;;;;;;11.90;11.23;;;;;;;13.09;100.00;101907.21;2015577;71;32824;-73
2022/04/10 11:38:15;;;;;;;12.77;11.87;;;;;;;13.01;100.00;101900.20;2015058;71;32821;-78
2022/04/10 11:44:02;;;;;;;12.43;11.63;;;;;;;13.18;100.00;101898.02;1997132;70;32754;-77
2022/04/10 11:49:53;;;;;;;12.00;11.30;;;;;;;13.14;100.00;101884.91;2003885;71;32867;-67
2022/04/10 11:55:40;;;;;;;12.73;11.80;;;;;;;13.28;100.00;101872.65;1994808;71;33273;-67
2022/04/10 12:01:30;;;;;;;12.00;11.50;;;;;;;13.42;100.00;101865.41;1997085;71;32812;-67
2022/04/10 12:07:17;;;;;;;15.93;15.03;;;;;;;13.30;100.00;101860.66;1994879;71;33360;-74
2022/04/10 12:16:13;;;;;;;12.50;11.57;;;;;;;13.21;100.00;101855.64;2061087;69;33192;-72
2022/04/10 12:18:51;;;;;;;12.30;11.67;;;;;;;13.60;100.00;101854.52;2010482;70;26194;-73
2022/04/10 12:21:22;;;;;;;12.10;11.30;;;;;;;13.54;100.00;101857.58;2019352;70;26226;-74
2022/04/10 12:24:00;;;;;;;12.00;11.40;;;;;;;13.31;100.00;101856.73;1941754;73;26335;-74
2022/04/10 12:26:30;;;;;;;12.33;11.43;;;;;;;13.23;100.00;101853.39;1942004;73;26313;-75
2022/04/10 12:29:01;;;;;;;11.70;11.10;;;;;;;13.45;100.00;101851.72;1969234;72;26287;-74
2022/04/10 12:31:33;;;;;;;12.47;11.63;;;;;;;13.49;100.00;101847.25;1939677;73;26312;-73
2022/04/10 12:34:04;;;;;;;12.73;11.90;;;;;;;13.52;100.00;101850.87;1972556;72;26181;-72
2022/04/10 12:36:34;;;;;;;12.33;11.53;;;;;;;13.35;100.00;101853.11;1938009;74;26670;-74
2022/04/10 12:39:04;;;;;;;13.93;12.70;;;;;;;13.48;100.00;101852.55;1968440;72;26701;-74
2022/04/10 12:41:34;;;;;;;12.77;12.00;;;;;;;13.37;100.00;101853.68;1938561;73;26236;-73
2022/04/10 12:44:08;;;;;;;12.20;11.40;;;;;;;13.47;100.00;101845.31;1966201;73;26271;-75
2022/04/10 12:46:39;;;;;;;11.57;11.03;;;;;;;13.39;100.00;101836.67;1934639;73;26293;-78
2022/04/10 12:49:13;;;;;;;11.60;10.90;;;;;;;13.32;100.00;101834.70;1969698;72;26274;-77
2022/04/10 12:51:50;;;;;;;12.37;11.57;;;;;;;13.35;100.00;101834.97;1946211;73;26286;-82
2022/04/10 12:54:22;;;;;;;12.50;11.60;;;;;;;13.35;100.00;101834.16;1940575;73;26192;-79
2022/04/10 12:56:55;;;;;;;13.03;12.13;;;;;;;13.39;100.00;101822.12;1936958;73;26223;-79
2022/04/10 12:59:35;;;;;;;12.07;11.47;;;;;;;13.41;100.00;101824.64;1936273;74;26290;-80
2022/04/10 13:02:10;;;;;;;12.07;11.37;;;;;;;13.60;100.00;101825.20;1933808;74;26680;-81
2022/04/10 13:04:41;;;;;;;12.10;11.40;;;;;;;13.65;100.00;101827.12;1931351;74;26232;-75
2022/04/10 13:07:18;;;;;;;12.47;11.67;;;;;;;13.57;100.00;101827.69;1899091;73;26174;-81
2022/04/10 13:09:52;;;;;;;12.47;11.57;;;;;;;13.48;100.00;101832.16;1979878;72;26223;-78
2022/04/10 13:12:28;;;;;;;12.60;11.80;;;;;;;13.55;100.00;101832.18;1980518;72;26281;-81
2022/04/10 13:14:59;;;;;;;11.93;11.27;;;;;;;13.45;100.00;101829.94;1976590;70;26208;-78
2022/04/10 13:17:33;;;;;;;13.00;12.00;;;;;;;13.33;100.00;101825.22;1980555;72;26231;-75
2022/04/10 13:20:06;;;;;;;12.13;11.37;;;;;;;13.35;100.00;101826.59;1980392;72;26231;-80
2022/04/10 13:22:37;;;;;;;12.10;11.40;;;;;;;13.41;100.00;101819.06;1980401;72;26297;-81
2022/04/10 13:25:12;;;;;;;12.10;11.40;;;;;;;13.53;100.00;101813.47;1979556;72;26224;-74
2022/04/10 13:27:43;;;;;;;11.93;11.30;;;;;;;13.52;100.00;101811.78;1979756;72;26213;-77
2022/04/10 13:30:15;;;;;;;12.30;11.60;;;;;;;13.64;100.00;101807.32;1979725;72;26653;-80
2022/04/10 13:32:45;;;;;;;11.80;11.17;;;;;;;13.55;100.00;101812.64;1979842;72;26245;-80
2022/04/10 13:35:16;;;;;;;12.20;11.60;;;;;;;13.62;100.00;101810.38;1979709;72;26176;-80
2022/04/10 13:41:01;;;;;;;11.63;10.97;;;;;;;13.95;100.00;101809.44;1994889;71;33308;-68
2022/04/10 13:46:45;;;;;;;12.07;11.43;;;;;;;13.70;100.00;101807.56;2014992;71;32889;-75
2022/04/10 13:52:31;;;;;;;11.77;11.07;;;;;;;13.72;100.00;101805.90;2015048;71;32953;-74
2022/04/10 13:58:15;;;;;;;12.03;11.33;;;;;;;13.62;100.00;101813.17;2011311;71;32933;-69
2022/04/10 14:04:01;;;;;;;12.07;11.37;;;;;;;13.60;100.00;101797.84;1991867;71;33214;-78
2022/04/10 14:09:45;;;;;;;12.10;11.40;;;;;;;13.95;100.00;101788.49;2013349;71;33298;-77
2022/04/10 14:15:29;;;;;;;11.87;11.23;;;;;;;13.71;100.00;101790.26;2002552;71;32762;-76
2022/04/10 14:21:13;;;;;;;11.60;10.90;;;;;;;13.45;100.00;101783.89;2006180;71;32845;-76
2022/04/10 14:26:58;;;;;;;11.80;11.13;;;;;;;13.70;100.00;101779.64;2015208;71;33358;-77
2022/04/10 14:32:42;;;;;;;11.97;11.37;;;;;;;13.66;100.00;101777.98;1999383;71;33239;-72
2022/04/10 14:38:28;;;;;;;11.73;11.03;;;;;;;13.50;100.00;101772.17;2006642;71;33317;-74
2022/04/10 14:44:13;;;;;;;12.60;11.70;;;;;;;13.50;100.00;101767.14;2018729;71;32910;-72
2022/04/10 14:49:58;;;;;;;11.47;10.97;;;;;;;13.41;100.00;101765.48;2010983;71;33021;-69
2022/04/10 14:55:42;;;;;;;12.00;11.37;;;;;;;13.32;100.00;101754.61;2011202;71;33415;-75
2022/04/10 15:01:27;;;;;;;12.40;11.70;;;;;;;13.45;100.00;101760.17;1998968;71;33289;-70
2022/04/10 15:07:12;;;;;;;12.40;11.70;;;;;;;13.56;100.00;101756.25;2018914;71;33301;-78
2022/04/10 15:12:56;;;;;;;12.50;11.80;;;;;;;13.55;100.00;101758.20;2011148;71;32816;-76
2022/04/10 15:18:41;;;;;;;12.20;11.50;;;;;;;13.37;100.00;101750.98;2014703;71;32931;-68
2022/04/10 15:24:25;;;;;;;12.17;11.57;;;;;;;13.51;100.00;101746.48;1938072;70;33078;-68
2022/04/10 15:30:13;;;;;;;11.93;11.07;;;;;;;13.46;100.00;101747.34;2014807;71;33339;-68
2022/04/10 15:35:57;;;;;;;11.67;11.07;;;;;;;13.28;100.00;101738.16;1995001;71;32867;-73
2022/04/10 15:41:45;;;;;;;11.93;11.30;;;;;;;13.19;100.00;101746.81;2005577;71;32822;-76
2022/04/10 15:47:34;;;;;;;11.70;11.00;;;;;;;13.14;100.00;101747.66;2006370;71;32747;-69
2022/04/10 15:53:21;;;;;;;11.90;11.30;;;;;;;13.09;100.00;101742.63;2011220;71;32886;-76
2022/04/10 15:59:05;;;;;;;12.37;11.67;;;;;;;13.07;100.00;101740.11;2011167;71;32873;-75
2022/04/10 16:04:50;;;;;;;12.03;11.40;;;;;;;12.95;100.00;101735.94;1999128;71;32924;-77
2022/04/10 16:10:34;;;;;;;11.53;10.93;;;;;;;12.96;100.00;101740.41;2004067;71;33355;-77
2022/04/10 16:16:18;;;;;;;11.67;11.10;;;;;;;12.85;100.00;101731.19;2004147;71;33363;-75
2022/04/10 16:22:02;;;;;;;12.00;11.30;;;;;;;12.85;100.00;101733.14;2002394;71;32813;-74
2022/04/10 16:39:50;;;;;;;11.40;10.80;;;;;;;12.78;97.40;101720.33;2002403;71;32829;-70
2022/04/10 16:45:37;;;;;;;11.57;11.07;;;;;;;12.61;95.19;101714.75;2015096;71;32823;-71
2022/04/10 16:51:22;;;;;;;11.60;10.90;;;;;;;12.54;93.09;101716.95;2011733;71;32764;-76
2022/04/10 16:57:06;;;;;;;11.80;11.10;;;;;;;12.52;94.00;101713.62;1962192;72;32895;-76
2022/04/10 17:02:52;;;;;;;11.63;11.13;;;;;;;12.41;97.38;101713.34;2011552;71;32747;-70
2022/04/10 17:08:37;;;;;;;11.93;11.33;;;;;;;12.38;92.44;101710.53;2014959;71;33415;-77
2022/04/10 17:14:21;;;;;;;11.73;11.23;;;;;;;12.19;92.06;101713.58;2014733;71;33005;-71
2022/04/10 17:20:09;;;;;;;11.97;11.27;;;;;;;12.19;96.12;101706.03;2005840;71;32815;-77
2022/04/10 17:25:53;;;;;;;12.00;11.20;;;;;;;12.11;92.79;101709.91;1998811;71;32763;-69
2022/04/10 17:31:37;;;;;;;11.53;10.93;;;;;;;12.07;90.40;101699.88;2016478;71;32802;-76
2022/04/10 17:37:22;;;;;;;12.30;11.60;;;;;;;11.99;97.16;101696.78;2009643;71;32903;-77
2022/04/10 17:43:08;;;;;;;11.53;10.93;;;;;;;11.95;99.06;101697.89;2000577;71;33405;-72
2022/04/10 17:48:52;;;;;;;12.20;11.40;;;;;;;11.97;99.15;101684.55;2002412;71;32894;-78
2022/04/10 17:54:37;;;;;;;10.80;10.20;;;;;;;11.84;100.00;101682.28;1997010;71;32799;-71
2022/04/10 18:00:22;;;;;;;10.47;9.87;;;;;;;11.76;100.00;101677.25;2000251;71;32928;-76
2022/04/10 18:06:07;;;;;;;11.90;11.30;;;;;;;11.71;100.00;101676.64;2009956;71;33257;-78
2022/04/10 18:11:51;;;;;;;11.50;10.90;;;;;;;11.71;100.00;101679.42;2013051;71;32884;-77
2022/04/10 18:17:35;;;;;;;12.00;11.37;;;;;;;11.64;100.00;101673.80;2016665;71;33327;-68
2022/04/10 18:23:22;;;;;;;12.40;11.70;;;;;;;11.60;100.00;101677.69;2005650;71;32884;-74
2022/04/10 18:29:07;;;;;;;12.50;11.80;;;;;;;11.53;100.00;101671.55;2014965;71;33326;-68
2022/04/10 18:34:52;;;;;;;11.67;11.13;;;;;;;11.46;100.00;101677.92;2001057;71;32933;-75
2022/04/10 18:40:36;;;;;;;12.70;11.87;;;;;;;11.32;100.00;101685.08;2002334;71;32891;-77
2022/04/10 18:46:21;;;;;;;12.23;11.53;;;;;;;11.27;100.00;101677.54;2000788;71;33307;-76
2022/04/10 18:52:12;;;;;;;16.70;14.97;;;;;;;11.23;100.00;101678.34;2013320;71;32835;-74
2022/04/10 18:57:54;;;;;;;12.93;12.03;;;;;;;11.10;100.00;101674.66;1999927;71;32831;-77
2022/04/10 19:03:40;;;;;;;12.40;11.63;;;;;;;10.76;100.00;101668.04;2011501;71;32928;-74
2022/04/10 19:09:27;;;;;;;12.33;11.67;;;;;;;10.56;100.00;101669.28;2008398;71;32842;-76
2022/04/10 19:15:12;;;;;;;12.77;11.77;;;;;;;10.43;100.00;101676.11;2016926;71;33359;-70
2022/04/10 19:20:56;;;;;;;12.17;11.57;;;;;;;10.46;100.00;101676.12;2014688;71;32868;-76
2022/04/10 19:26:40;;;;;;;12.50;11.60;;;;;;;10.30;100.00;101676.55;1998834;71;33339;-79
2022/04/10 19:32:25;;;;;;;12.60;11.90;;;;;;;10.44;100.00;101667.20;2015455;71;32816;-71
2022/04/10 19:38:09;;;;;;;12.47;11.70;;;;;;;10.19;100.00;101662.26;2007806;71;32869;-77
2022/04/10 19:43:53;;;;;;;13.10;12.20;;;;;;;10.27;100.00;101659.00;1998654;71;33405;-70
2022/04/10 19:49:38;;;;;;;12.70;12.00;;;;;;;10.13;100.00;101654.13;2018503;71;32958;-77
2022/04/10 19:55:23;;;;;;;13.83;12.93;;;;;;;9.83;100.00;101661.03;2018604;71;33068;-72
2022/04/10 20:01:07;;;;;;;12.87;12.07;;;;;;;10.13;100.00;101654.13;2006217;71;33258;-72
2022/04/10 20:06:52;;;;;;;13.47;12.67;;;;;;;10.04;100.00;101658.77;1996807;71;32778;-75
2022/04/10 20:12:37;;;;;;;13.77;12.97;;;;;;;9.95;100.00;101663.11;2009554;71;33307;-68
2022/04/10 20:18:23;;;;;;;13.40;12.50;;;;;;;10.04;100.00;101647.66;1998277;71;32884;-71
2022/04/10 20:24:08;;;;;;;13.27;12.47;;;;;;;9.94;100.00;101638.38;2007631;71;32836;-76
2022/04/10 20:29:53;;;;;;;12.60;11.80;;;;;;;9.83;100.00;101643.00;2002452;71;32778;-69
2022/04/10 20:35:39;;;;;;;12.33;11.60;;;;;;;9.90;100.00;101642.78;2007882;71;32972;-68
2022/04/10 20:41:24;;;;;;;13.00;12.20;;;;;;;9.95;100.00;101643.68;2002727;71;32969;-78
2022/04/10 20:47:09;;;;;;;13.27;12.47;;;;;;;9.81;100.00;101643.80;2015232;70;32949;-76
2022/04/10 20:52:56;;;;;;;13.07;12.27;;;;;;;9.88;100.00;101644.41;2014705;71;33336;-71
2022/04/10 20:58:41;;;;;;;12.73;12.13;;;;;;;9.72;100.00;101634.26;2000879;71;33392;-69
2022/04/10 21:04:25;;;;;;;13.30;12.50;;;;;;;9.76;100.00;101635.41;2000843;71;32865;-69
2022/04/10 21:10:52;;;;;;;13.50;12.57;;;;;;;9.46;100.00;101626.19;2007700;71;33424;-68
2022/04/10 21:15:58;;;;;;;13.27;12.47;;;;;;;9.46;100.00;101617.88;2009591;70;33086;-68
2022/04/10 21:21:44;;;;;;;12.90;12.20;;;;;;;9.45;100.00;101612.60;2016594;71;33328;-76
2022/04/10 21:27:28;;;;;;;12.63;11.90;;;;;;;9.38;100.00;101606.40;1998767;71;32868;-69
2022/04/10 21:33:12;;;;;;;12.70;12.00;;;;;;;9.42;100.00;101605.63;2005892;71;32880;-75
2022/04/10 21:35:44;;;;;;;12.73;11.93;;;;;;;9.38;100.00;101607.24;1971214;72;26341;-69
2022/04/10 21:41:28;;;;;;;12.77;11.97;;;;;;;9.35;100.00;101595.29;2018404;70;32986;-71
2022/04/10 21:47:13;;;;;;;12.50;11.90;;;;;;;9.20;100.00;101596.47;1997024;71;32763;-69
2022/04/10 21:52:57;;;;;;;13.00;12.10;;;;;;;9.40;100.00;101584.27;2009977;71;32857;-70
2022/04/10 21:58:43;;;;;;;12.80;11.97;;;;;;;9.32;100.00;101584.73;2000793;71;32816;-70
2022/04/10 22:04:19;;;;;;;13.10;12.00;;;;;;;9.26;100.00;101587.14;1983457;70;32709;-78
2022/04/10 22:06:49;;;;;;;13.00;12.20;;;;;;;9.24;100.00;101582.96;1921589;75;26244;-69
2022/04/10 22:09:19;;;;;;;12.73;12.13;;;;;;;9.19;100.00;101578.19;1957362;73;26279;-78
2022/04/10 22:11:50;;;;;;;12.93;12.03;;;;;;;9.20;100.00;101578.45;1923613;74;26175;-79
2022/04/10 22:14:20;;;;;;;13.47;12.43;;;;;;;9.13;100.00;101576.44;1923627;74;26261;-68
2022/04/10 22:16:50;;;;;;;12.87;12.07;;;;;;;9.13;100.00;101580.05;1923310;74;26669;-78
2022/04/10 22:19:20;;;;;;;13.30;12.37;;;;;;;9.12;100.00;101576.98;1923499;74;26256;-78
2022/04/10 22:21:51;;;;;;;13.20;12.40;;;;;;;8.95;100.00;101586.44;1923353;74;26696;-68
2022/04/10 22:24:21;;;;;;;12.83;12.03;;;;;;;9.23;100.00;101579.89;1923670;74;26244;-76
2022/04/10 22:26:51;;;;;;;13.20;12.30;;;;;;;8.92;100.00;101586.42;1923528;74;26178;-73
2022/04/10 22:29:21;;;;;;;13.27;12.37;;;;;;;8.94;100.00;101582.02;1923636;74;26248;-70